Wanatah, Indiana
Current Conditions -  °F | °C
As of 6:56 AM on Sunday 23 Nov 2014 (Local Time) from KVPZ Reporting Station
Overcast Overcast  
Wind Chill: 44°   Ceiling: 6000
Heat Index: 48°   Visibility: 10mi
Dew Point: 41°   Wind: 9mph
Humidity: 77%   Direction: 180°S
Pressure: 29.82"   Gusts: NA
Location:  41.43°N, 86.9°W
Report Text: KVPZ 231256Z AUTO 18008KT 10SM BKN060 OVC070 09/05 A2982 RMK AO2 RAE03 SLP100 P0000 T00890050 TSNO
Loading
Personal Weather Stations






























Interactive Weather Map New forecast layout! Learn more

10-Day Weather Forecast

Advertisements
Track Severe Weather on mobile